Time;durP1;ratioP1;P1;durP2;ratioP2;P2;SDS_P1;SDS_P2;PMS_P1;PMS_P2;Temp;Humidity;BMP_temperature;BMP_pressure;BME280_temperature;BME280_humidity;BME280_pressure;Samples;Min_cycle;Max_cycle;Signal;HPM_P1;HPM_P2
2023/04/06 00:01:45;;;;;;;4.60;3.50;;;;;;;0.87;54.29;101153.23;103659;280;38993;-69
2023/04/06 00:04:24;;;;;;;6.40;3.60;;;;;;;0.84;54.59;101149.07;103507;280;175857;-70
2023/04/06 00:06:57;;;;;;;8.50;3.70;;;;;;;0.81;54.61;101149.55;103657;280;39713;-68
2023/04/06 00:09:31;;;;;;;7.30;3.90;;;;;;;0.80;54.66;101149.88;103634;280;39829;-68
2023/04/06 00:12:05;;;;;;;8.00;4.00;;;;;;;0.78;54.66;101144.52;103641;280;38737;-69
2023/04/06 00:14:40;;;;;;;10.70;4.30;;;;;;;0.77;54.65;101146.05;103648;280;39454;-68
2023/04/06 00:17:14;;;;;;;7.40;3.90;;;;;;;0.76;54.87;101142.27;103635;280;38616;-70
2023/04/06 00:19:48;;;;;;;8.60;4.10;;;;;;;0.74;54.96;101140.52;103619;280;39632;-69
2023/04/06 00:22:22;;;;;;;5.30;3.70;;;;;;;0.74;54.92;101141.21;103600;280;39150;-73
2023/04/06 00:24:56;;;;;;;7.30;4.00;;;;;;;0.75;55.03;101142.76;103646;280;38394;-73
2023/04/06 00:27:30;;;;;;;6.10;3.50;;;;;;;0.74;55.33;101138.80;103641;280;38868;-69
2023/04/06 00:30:04;;;;;;;6.30;3.60;;;;;;;0.75;54.65;101133.31;103626;280;38484;-71
2023/04/06 00:32:39;;;;;;;5.80;3.20;;;;;;;0.77;54.41;101134.02;103600;280;38252;-69
2023/04/06 00:35:14;;;;;;;4.80;2.90;;;;;;;0.79;54.48;101134.06;103634;280;39654;-71
2023/04/06 00:37:50;;;;;;;5.70;3.70;;;;;;;0.81;54.53;101132.20;103460;280;39674;-70
2023/04/06 00:40:24;;;;;;;6.60;3.40;;;;;;;0.80;54.42;101130.98;103640;280;39523;-72
2023/04/06 00:42:58;;;;;;;6.70;3.80;;;;;;;0.80;54.48;101123.77;103659;280;38284;-68
2023/04/06 00:45:33;;;;;;;6.30;3.40;;;;;;;0.80;54.43;101126.52;103630;280;38239;-70
2023/04/06 00:48:07;;;;;;;6.40;3.70;;;;;;;0.80;54.62;101120.85;103623;280;39418;-70
2023/04/06 00:50:44;;;;;;;7.90;4.10;;;;;;;0.81;54.60;101126.19;103418;280;38410;-68
2023/04/06 00:53:27;;;;;;;6.70;3.90;;;;;;;0.82;54.81;101124.30;103616;280;39408;-69
2023/04/06 00:56:01;;;;;;;6.10;3.90;;;;;;;0.81;54.89;101126.35;103608;280;39377;-69
2023/04/06 00:58:42;;;;;;;8.10;4.10;;;;;;;0.80;54.84;101121.70;103622;280;39731;-68
2023/04/06 01:01:17;;;;;;;6.20;3.80;;;;;;;0.79;54.96;101118.08;103649;280;38518;-70
2023/04/06 01:03:51;;;;;;;6.50;4.30;;;;;;;0.80;55.16;101123.08;103480;280;40400;-72
2023/04/06 01:06:25;;;;;;;7.00;3.80;;;;;;;0.79;55.22;101120.66;103616;280;39099;-72
2023/04/06 01:08:59;;;;;;;6.60;3.70;;;;;;;0.78;55.37;101118.59;103623;280;38419;-72
2023/04/06 01:11:33;;;;;;;6.40;3.90;;;;;;;0.78;55.49;101115.66;103604;280;38249;-69
2023/04/06 01:14:07;;;;;;;7.50;4.50;;;;;;;0.77;55.54;101112.73;103590;280;38238;-68
2023/04/06 01:16:41;;;;;;;8.30;5.20;;;;;;;0.75;55.74;101114.61;103625;280;38949;-68
2023/04/06 01:19:16;;;;;;;8.60;4.80;;;;;;;0.74;55.95;101111.32;103419;280;38653;-70
2023/04/06 01:21:52;;;;;;;10.50;4.90;;;;;;;0.73;56.10;101110.79;103624;280;38264;-70
2023/04/06 01:24:26;;;;;;;7.00;5.30;;;;;;;0.72;56.08;101107.17;103579;280;38424;-72
2023/04/06 01:27:01;;;;;;;11.60;7.50;;;;;;;0.70;56.21;101104.90;103589;280;38711;-69
2023/04/06 01:29:36;;;;;;;10.80;7.10;;;;;;;0.69;56.60;101103.85;103619;280;38502;-69
2023/04/06 01:32:10;;;;;;;15.80;9.00;;;;;;;0.68;56.76;101099.02;103590;280;39735;-69
2023/04/06 01:34:44;;;;;;;13.70;9.30;;;;;;;0.66;56.82;101098.33;103151;269;608254;-69
2023/04/06 01:37:18;;;;;;;17.40;10.40;;;;;;;0.65;56.87;101098.30;103563;280;38278;-73
2023/04/06 01:39:53;;;;;;;16.80;11.00;;;;;;;0.63;57.29;101095.20;103593;269;38530;-71
2023/04/06 01:42:27;;;;;;;15.10;9.50;;;;;;;0.61;57.20;101095.86;103632;280;39406;-71
2023/04/06 01:45:02;;;;;;;14.00;9.50;;;;;;;0.60;57.32;101094.30;103672;280;38266;-72
2023/04/06 01:47:36;;;;;;;12.90;7.80;;;;;;;0.60;58.11;101093.60;103653;280;39815;-71
2023/04/06 01:50:14;;;;;;;13.60;6.80;;;;;;;0.61;57.85;101096.02;103651;280;38253;-72
2023/04/06 01:52:48;;;;;;;12.30;7.80;;;;;;;0.62;58.17;101090.71;103679;280;38251;-73
2023/04/06 01:55:22;;;;;;;12.90;7.10;;;;;;;0.65;58.31;101088.00;103478;282;38834;-71
2023/04/06 01:57:56;;;;;;;12.90;8.80;;;;;;;0.70;58.40;101085.86;103675;280;39877;-72
2023/04/06 02:00:30;;;;;;;12.70;7.80;;;;;;;0.76;58.42;101084.04;103668;268;39626;-70
2023/04/06 02:03:11;;;;;;;16.60;9.10;;;;;;;0.80;58.39;101083.75;103669;268;38279;-68
2023/04/06 02:05:51;;;;;;;13.90;7.90;;;;;;;0.83;58.40;101082.23;103476;280;39317;-68
2023/04/06 02:08:32;;;;;;;13.80;8.10;;;;;;;0.85;58.54;101081.59;103662;280;38932;-68
2023/04/06 02:11:11;;;;;;;14.20;7.90;;;;;;;0.85;58.41;101078.84;103663;279;38954;-71
2023/04/06 02:13:45;;;;;;;14.50;7.70;;;;;;;0.82;58.55;101078.45;103689;280;38671;-71
2023/04/06 02:16:19;;;;;;;13.60;8.10;;;;;;;0.80;59.02;101080.99;103669;279;38665;-68
2023/04/06 02:18:53;;;;;;;12.70;7.70;;;;;;;0.78;58.76;101077.72;103565;280;175510;-70
2023/04/06 02:21:28;;;;;;;12.40;7.30;;;;;;;0.76;58.72;101074.42;103648;280;38532;-71
2023/04/06 02:24:02;;;;;;;14.30;8.10;;;;;;;0.74;58.67;101074.22;103643;280;38341;-72
2023/04/06 02:26:36;;;;;;;12.80;7.50;;;;;;;0.72;58.94;101072.67;103495;280;175944;-68
2023/04/06 02:29:13;;;;;;;11.30;7.40;;;;;;;0.70;58.94;101072.11;103673;280;38243;-67
2023/04/06 02:31:50;;;;;;;11.60;7.90;;;;;;;0.67;58.96;101070.70;103673;280;38567;-67
2023/04/06 02:34:27;;;;;;;13.30;7.70;;;;;;;0.65;59.03;101067.74;103671;280;38369;-67
2023/04/06 02:37:01;;;;;;;11.00;7.50;;;;;;;0.61;59.07;101066.83;103570;268;177659;-69
2023/04/06 02:39:35;;;;;;;14.00;7.70;;;;;;;0.58;59.21;101066.11;103650;280;40106;-70
2023/04/06 02:42:10;;;;;;;14.90;8.50;;;;;;;0.56;59.18;101063.31;103456;269;40385;-67
2023/04/06 02:44:46;;;;;;;12.70;8.30;;;;;;;0.52;59.27;101060.18;103663;280;38846;-68
2023/04/06 02:47:26;;;;;;;12.50;7.90;;;;;;;0.49;59.41;101063.25;103654;280;39449;-68
2023/04/06 02:50:06;;;;;;;12.60;8.50;;;;;;;0.47;59.61;101064.40;103644;280;38592;-70
2023/04/06 02:52:42;;;;;;;15.50;7.90;;;;;;;0.44;59.75;101064.38;103527;281;39948;-71
2023/04/06 02:55:16;;;;;;;13.70;8.90;;;;;;;0.42;59.90;101060.89;103680;280;40186;-70
2023/04/06 02:57:50;;;;;;;14.50;8.60;;;;;;;0.40;59.99;101058.30;103673;280;38845;-68
2023/04/06 03:00:24;;;;;;;15.90;9.20;;;;;;;0.39;59.94;101061.02;103674;280;38700;-70
2023/04/06 03:02:58;;;;;;;14.00;8.20;;;;;;;0.38;60.11;101065.64;103636;280;39450;-71
2023/04/06 03:05:32;;;;;;;13.70;8.10;;;;;;;0.37;60.20;101062.55;103644;280;39433;-70
2023/04/06 03:08:07;;;;;;;13.20;7.90;;;;;;;0.39;60.18;101067.04;103669;280;39695;-69
2023/04/06 03:10:42;;;;;;;14.30;8.40;;;;;;;0.43;60.52;101068.30;103670;280;38263;-71
2023/04/06 03:13:16;;;;;;;15.60;8.40;;;;;;;0.45;60.51;101066.98;103680;280;39392;-68
2023/04/06 03:15:50;;;;;;;14.00;8.90;;;;;;;0.47;60.54;101066.30;103671;284;39696;-69
2023/04/06 03:18:33;;;;;;;14.90;8.80;;;;;;;0.48;60.62;101067.86;103480;280;38478;-68
2023/04/06 03:21:08;;;;;;;16.20;9.60;;;;;;;0.46;60.68;101068.34;103513;282;39358;-68
2023/04/06 03:23:49;;;;;;;15.00;9.00;;;;;;;0.43;60.56;101065.05;103515;280;38334;-67
2023/04/06 03:26:28;;;;;;;16.10;9.50;;;;;;;0.40;60.88;101064.14;103651;280;38258;-71
2023/04/06 03:29:02;;;;;;;14.40;8.90;;;;;;;0.35;60.99;101069.72;103683;280;39551;-72
2023/04/06 03:31:36;;;;;;;16.20;9.60;;;;;;;0.32;61.09;101072.92;103665;280;38310;-67
2023/04/06 03:34:18;;;;;;;16.90;9.60;;;;;;;0.28;61.21;101076.84;103678;280;39454;-68
2023/04/06 03:36:52;;;;;;;14.50;9.10;;;;;;;0.24;61.32;101076.77;103671;280;38681;-68
2023/04/06 03:39:33;;;;;;;15.80;9.60;;;;;;;0.20;61.37;101075.86;103647;268;38669;-68
2023/04/06 03:42:11;;;;;;;16.60;10.20;;;;;;;0.15;61.77;101075.27;103668;280;38768;-69
2023/04/06 03:44:50;;;;;;;15.50;9.20;;;;;;;0.11;61.80;101075.70;103676;280;38233;-70
2023/04/06 03:47:31;;;;;;;16.50;10.20;;;;;;;0.05;61.91;101070.81;103687;280;39675;-72
2023/04/06 03:50:06;;;;;;;21.10;10.40;;;;;;;0.00;62.08;101073.48;103628;280;38725;-70
2023/04/06 03:52:40;;;;;;;17.90;9.40;;;;;;;-0.04;62.43;101072.38;103665;280;38409;-70
2023/04/06 03:55:14;;;;;;;14.90;9.10;;;;;;;-0.07;62.59;101068.73;103657;280;39678;-70
2023/04/06 03:57:48;;;;;;;13.60;8.00;;;;;;;-0.07;62.70;101072.15;103638;280;38845;-71
2023/04/06 04:00:25;;;;;;;17.70;10.00;;;;;;;-0.06;63.04;101066.85;103716;280;38822;-69
2023/04/06 04:02:59;;;;;;;19.00;10.30;;;;;;;-0.04;63.13;101071.36;103672;280;38522;-70
2023/04/06 04:05:33;;;;;;;19.70;10.80;;;;;;;0.00;63.15;101075.02;103665;280;38357;-69
2023/04/06 04:08:14;;;;;;;17.20;9.60;;;;;;;0.03;63.30;101071.96;103663;280;39685;-69
2023/04/06 04:10:51;;;;;;;20.40;10.70;;;;;;;0.04;63.34;101074.73;103607;280;39745;-68
2023/04/06 04:13:25;;;;;;;18.10;10.00;;;;;;;0.03;63.63;101072.65;103666;280;40355;-70
2023/04/06 04:15:59;;;;;;;19.40;10.00;;;;;;;0.04;63.73;101074.03;103634;280;39723;-68
2023/04/06 04:18:33;;;;;;;19.50;9.80;;;;;;;0.05;63.68;101074.23;103058;279;916657;-68
2023/04/06 04:21:08;;;;;;;18.60;10.30;;;;;;;0.06;63.79;101073.58;103677;280;39458;-69
2023/04/06 04:23:42;;;;;;;17.90;10.20;;;;;;;0.07;63.91;101074.79;103659;276;38264;-71
2023/04/06 04:26:16;;;;;;;16.90;9.30;;;;;;;0.07;64.01;101072.05;103675;268;38969;-72
2023/04/06 04:28:50;;;;;;;19.20;9.70;;;;;;;0.10;64.10;101068.82;103623;280;39405;-70
2023/04/06 04:31:24;;;;;;;21.70;10.60;;;;;;;0.11;64.39;101066.97;103681;280;39014;-69
2023/04/06 04:33:58;;;;;;;24.00;11.70;;;;;;;0.15;64.43;101069.09;103667;280;38375;-69
2023/04/06 04:36:32;;;;;;;18.80;10.00;;;;;;;0.19;64.43;101064.33;103649;280;38566;-70
2023/04/06 04:39:06;;;;;;;23.10;10.50;;;;;;;0.26;64.47;101064.27;103508;280;39899;-71
2023/04/06 04:41:39;;;;;;;22.40;10.40;;;;;;;0.33;64.33;101062.65;103675;280;39442;-69
2023/04/06 04:44:20;;;;;;;16.60;9.00;;;;;;;0.39;64.32;101059.83;103664;280;38304;-68
2023/04/06 04:47:03;;;;;;;18.10;8.90;;;;;;;0.44;64.27;101062.30;103683;279;39644;-67
2023/04/06 04:49:48;;;;;;;15.30;8.80;;;;;;;0.48;64.32;101061.66;103639;280;39940;-67
2023/04/06 04:52:24;;;;;;;14.70;8.40;;;;;;;0.50;64.23;101059.65;103693;280;38495;-73
2023/04/06 04:54:58;;;;;;;15.30;8.90;;;;;;;0.52;64.29;101052.64;103681;280;39273;-72
2023/04/06 04:57:32;;;;;;;15.80;8.20;;;;;;;0.56;64.41;101046.16;103640;280;38898;-71
2023/04/06 05:00:09;;;;;;;15.40;8.60;;;;;;;0.58;64.28;101047.90;103677;280;38844;-73
2023/04/06 05:02:47;;;;;;;13.00;8.00;;;;;;;0.61;64.37;101047.27;103681;280;38251;-67
2023/04/06 05:05:28;;;;;;;12.90;8.60;;;;;;;0.64;64.37;101044.92;103679;280;38275;-71
2023/04/06 05:08:02;;;;;;;14.00;7.70;;;;;;;0.70;64.35;101044.29;103657;280;39877;-70
2023/04/06 05:10:36;;;;;;;11.70;7.30;;;;;;;0.74;64.38;101045.73;103696;280;39958;-68
2023/04/06 05:13:09;;;;;;;16.90;7.20;;;;;;;0.76;64.25;101044.72;103672;280;39792;-70
2023/04/06 05:15:43;;;;;;;11.60;8.00;;;;;;;0.81;64.23;101042.54;103682;280;38755;-69
2023/04/06 05:18:17;;;;;;;11.30;6.70;;;;;;;0.87;64.18;101045.88;103645;280;38851;-70
2023/04/06 05:20:51;;;;;;;11.20;6.70;;;;;;;0.93;64.01;101049.90;103665;280;38760;-73
2023/04/06 05:23:26;;;;;;;12.00;6.60;;;;;;;1.00;63.99;101047.59;103694;280;38295;-73
2023/04/06 05:26:01;;;;;;;10.10;6.30;;;;;;;1.09;63.95;101050.95;103639;279;38384;-74
2023/04/06 05:28:35;;;;;;;11.90;6.70;;;;;;;1.16;63.75;101054.12;103647;280;38785;-72
2023/04/06 05:31:09;;;;;;;9.00;6.10;;;;;;;1.24;63.60;101051.48;103708;280;39572;-69
2023/04/06 05:33:43;;;;;;;10.90;6.70;;;;;;;1.31;63.63;101049.81;103642;280;39984;-68
2023/04/06 05:36:17;;;;;;;9.40;6.30;;;;;;;1.37;63.33;101047.64;103676;280;38265;-71
2023/04/06 05:38:52;;;;;;;11.30;6.20;;;;;;;1.44;63.20;101044.45;103630;280;39434;-72
2023/04/06 05:41:26;;;;;;;11.30;6.50;;;;;;;1.51;62.99;101047.27;103688;280;39944;-68
2023/04/06 05:44:00;;;;;;;9.90;6.10;;;;;;;1.60;62.85;101045.83;103654;279;38522;-69
2023/04/06 05:46:34;;;;;;;9.90;6.70;;;;;;;1.71;63.05;101039.38;103675;280;39626;-70
2023/04/06 05:49:08;;;;;;;8.20;6.00;;;;;;;1.84;62.90;101038.45;103514;280;38548;-71
2023/04/06 05:51:43;;;;;;;9.90;5.90;;;;;;;1.95;62.49;101038.90;103669;280;38823;-68
2023/04/06 05:54:16;;;;;;;9.60;5.60;;;;;;;2.07;62.16;101031.92;103642;280;38516;-69
2023/04/06 05:56:51;;;;;;;7.60;5.80;;;;;;;2.24;62.14;101031.02;103677;280;38893;-69
2023/04/06 05:59:26;;;;;;;9.50;6.00;;;;;;;2.47;61.74;101029.95;103682;280;38229;-71
2023/04/06 06:02:05;;;;;;;8.80;5.90;;;;;;;2.73;61.58;101030.59;103748;280;38822;-70
2023/04/06 06:04:45;;;;;;;9.20;5.70;;;;;;;3.04;61.46;101027.26;103742;280;38387;-69
2023/04/06 06:07:33;;;;;;;9.40;5.40;;;;;;;3.35;60.48;101022.18;103557;281;40265;-68
2023/04/06 06:10:13;;;;;;;8.90;5.30;;;;;;;3.70;59.59;101020.33;103681;280;39853;-69
2023/04/06 06:12:48;;;;;;;8.60;5.30;;;;;;;3.94;58.67;101017.23;103702;279;39412;-70
2023/04/06 06:15:23;;;;;;;9.10;5.30;;;;;;;4.21;58.19;101017.36;103681;280;39484;-72
2023/04/06 06:17:58;;;;;;;6.80;4.60;;;;;;;4.46;57.08;101016.27;103597;280;175577;-71
2023/04/06 06:20:33;;;;;;;9.10;5.10;;;;;;;4.71;56.28;101013.08;103699;280;38278;-71
2023/04/06 06:23:07;;;;;;;5.70;4.10;;;;;;;4.98;55.64;101009.69;103707;280;38359;-71
2023/04/06 06:25:42;;;;;;;6.50;4.30;;;;;;;5.26;54.96;101008.14;103728;279;39207;-70
2023/04/06 06:28:17;;;;;;;7.80;4.60;;;;;;;5.43;54.03;101007.52;103704;280;39666;-70
2023/04/06 06:30:53;;;;;;;7.00;4.10;;;;;;;5.56;53.62;101004.84;103759;280;39424;-72
2023/04/06 06:33:27;;;;;;;7.20;4.20;;;;;;;5.70;53.20;101006.63;103695;280;38247;-69
2023/04/06 06:36:01;;;;;;;6.70;4.40;;;;;;;5.78;52.27;101007.96;103756;280;38457;-69
2023/04/06 06:38:36;;;;;;;5.40;3.80;;;;;;;5.83;51.56;101011.20;103671;280;38276;-68
2023/04/06 06:41:10;;;;;;;6.80;3.70;;;;;;;5.83;50.85;101008.96;103660;280;39492;-71
2023/04/06 06:43:44;;;;;;;6.50;3.90;;;;;;;5.88;50.44;101009.09;103663;280;37952;-71
2023/04/06 06:46:19;;;;;;;5.90;3.90;;;;;;;6.00;50.73;101006.42;103693;280;38402;-69
2023/04/06 06:48:56;;;;;;;6.40;4.00;;;;;;;6.18;50.57;101001.05;103692;280;38268;-69
2023/04/06 06:51:31;;;;;;;13.40;4.30;;;;;;;6.26;50.19;101002.20;103676;280;39744;-74
2023/04/06 06:54:08;;;;;;;7.50;4.10;;;;;;;6.28;49.30;100998.70;103705;280;38401;-73
2023/04/06 06:56:42;;;;;;;6.30;3.70;;;;;;;6.23;48.95;100997.01;103698;280;39399;-70
2023/04/06 06:59:17;;;;;;;5.30;3.80;;;;;;;6.16;48.17;100996.21;103652;280;39644;-69
2023/04/06 07:01:52;;;;;;;5.90;4.00;;;;;;;5.97;47.89;100991.89;103669;280;38976;-71
2023/04/06 07:04:26;;;;;;;5.40;3.40;;;;;;;5.82;48.29;100988.53;103636;280;39056;-69
2023/04/06 07:07:01;;;;;;;4.70;3.90;;;;;;;5.70;48.43;100991.40;103685;280;38470;-71
2023/04/06 07:09:37;;;;;;;6.10;3.60;;;;;;;5.62;48.63;100993.02;103676;280;39607;-69
2023/04/06 07:12:15;;;;;;;14.70;4.70;;;;;;;5.57;48.63;100996.88;103690;280;39997;-69
2023/04/06 07:14:49;;;;;;;5.50;3.60;;;;;;;5.55;48.72;100995.33;103692;279;38553;-70
2023/04/06 07:17:26;;;;;;;7.90;3.30;;;;;;;5.56;48.67;100996.88;103671;280;38826;-69
2023/04/06 07:20:01;;;;;;;7.30;3.90;;;;;;;5.66;49.14;100996.63;103634;280;38544;-72
2023/04/06 07:22:35;;;;;;;8.30;3.60;;;;;;;5.85;48.66;100991.45;103669;278;38355;-68
2023/04/06 07:25:14;;;;;;;12.70;3.20;;;;;;;6.08;47.77;100993.18;103675;280;38454;-68
2023/04/06 07:27:49;;;;;;;8.70;2.80;;;;;;;6.24;47.03;100992.85;103674;280;39671;-72
2023/04/06 07:30:26;;;;;;;8.20;3.90;;;;;;;6.36;47.02;100994.45;103716;280;38619;-71
2023/04/06 07:33:00;;;;;;;7.80;3.40;;;;;;;6.52;47.29;100993.42;103569;280;39680;-72
2023/04/06 07:35:36;;;;;;;5.60;3.10;;;;;;;6.65;47.33;100987.88;103673;280;39277;-70
2023/04/06 07:38:13;;;;;;;8.30;3.70;;;;;;;6.74;46.73;100992.45;103694;280;39980;-69
2023/04/06 07:40:48;;;;;;;7.90;3.30;;;;;;;6.70;46.23;100991.46;103651;280;38241;-70
2023/04/06 07:43:22;;;;;;;5.80;2.80;;;;;;;6.57;46.01;100995.27;103695;280;39583;-71
2023/04/06 07:45:57;;;;;;;4.50;3.10;;;;;;;6.38;46.13;100995.12;103708;280;38652;-68
2023/04/06 07:48:31;;;;;;;7.80;3.20;;;;;;;6.22;46.39;100992.86;103681;280;40388;-68
2023/04/06 07:51:07;;;;;;;5.00;2.90;;;;;;;6.04;46.42;100990.09;103695;280;38236;-70
2023/04/06 07:53:41;;;;;;;6.20;2.90;;;;;;;5.88;46.96;100987.12;103637;280;39658;-70
2023/04/06 07:56:17;;;;;;;4.50;3.00;;;;;;;5.78;47.35;100987.36;103055;268;910151;-68
2023/04/06 07:58:55;;;;;;;5.40;3.20;;;;;;;5.66;47.55;100986.23;103622;280;37254;-68
2023/04/06 08:01:30;;;;;;;4.50;3.10;;;;;;;5.55;47.74;100984.95;103668;280;39978;-73
2023/04/06 08:04:04;;;;;;;4.80;2.80;;;;;;;5.50;48.46;100976.33;103625;280;38254;-70
2023/04/06 08:06:38;;;;;;;5.40;2.90;;;;;;;5.50;48.16;100982.56;103704;280;40192;-71
2023/04/06 08:09:12;;;;;;;3.70;2.50;;;;;;;5.56;48.67;100975.08;103637;280;38508;-70
2023/04/06 08:11:48;;;;;;;6.60;3.00;;;;;;;5.63;48.70;100980.21;103652;279;38504;-68
2023/04/06 08:14:22;;;;;;;5.20;3.20;;;;;;;5.65;48.68;100981.05;103671;325;38622;-68
2023/04/06 08:16:56;;;;;;;3.00;2.60;;;;;;;5.64;48.66;100982.80;103705;280;38816;-71
2023/04/06 08:19:31;;;;;;;12.30;3.50;;;;;;;5.63;48.47;100978.12;103706;280;38278;-69
2023/04/06 08:22:05;;;;;;;7.10;2.90;;;;;;;5.58;48.68;100976.27;103662;280;38372;-68
2023/04/06 08:24:40;;;;;;;4.50;2.80;;;;;;;5.57;49.00;100972.30;103682;280;39718;-70
2023/04/06 08:27:16;;;;;;;3.90;2.40;;;;;;;5.63;49.30;100975.89;103684;280;38386;-71
2023/04/06 08:29:50;;;;;;;4.10;3.00;;;;;;;5.66;49.23;100971.02;103662;268;38240;-71
2023/04/06 08:32:24;;;;;;;4.40;3.40;;;;;;;5.68;49.69;100968.74;103664;280;39431;-73
2023/04/06 08:34:59;;;;;;;5.30;3.00;;;;;;;5.75;49.89;100973.36;103655;280;38255;-73
2023/04/06 08:37:34;;;;;;;4.20;2.80;;;;;;;5.74;49.99;100974.23;103637;280;39393;-72
2023/04/06 08:40:11;;;;;;;5.60;2.90;;;;;;;5.73;50.34;100977.54;103656;280;38379;-72
2023/04/06 08:42:50;;;;;;;5.10;3.20;;;;;;;5.77;51.01;100975.77;103663;280;40111;-72
2023/04/06 08:45:24;;;;;;;4.70;3.10;;;;;;;5.85;51.00;100974.82;103684;280;38733;-71
2023/04/06 08:47:58;;;;;;;3.40;3.00;;;;;;;5.90;51.64;100972.35;103663;280;40601;-71
2023/04/06 08:50:32;;;;;;;4.00;2.90;;;;;;;5.86;52.42;100970.14;103714;280;39823;-70
2023/04/06 08:53:18;;;;;;;5.90;3.20;;;;;;;5.79;53.19;100968.82;103722;280;38408;-68
2023/04/06 08:55:53;;;;;;;5.60;3.30;;;;;;;5.68;53.26;100968.40;103725;279;38249;-70
2023/04/06 08:58:27;;;;;;;4.90;3.30;;;;;;;5.52;53.51;100967.66;103584;279;175498;-69
2023/04/06 09:01:01;;;;;;;5.00;3.40;;;;;;;5.41;53.70;100967.05;103701;280;40589;-73
2023/04/06 09:03:36;;;;;;;5.00;3.60;;;;;;;5.33;54.03;100964.33;103568;280;175542;-73
2023/04/06 09:06:11;;;;;;;4.80;3.10;;;;;;;5.27;54.41;100965.41;103735;280;38268;-69
2023/04/06 09:08:45;;;;;;;5.80;3.40;;;;;;;5.20;54.55;100962.19;103679;279;38446;-69
2023/04/06 09:11:19;;;;;;;5.50;3.30;;;;;;;5.12;55.13;100955.31;103620;280;38251;-72
2023/04/06 09:13:55;;;;;;;4.60;3.70;;;;;;;5.08;55.66;100956.89;103001;280;910230;-73
2023/04/06 09:16:29;;;;;;;6.50;3.50;;;;;;;5.05;56.06;100954.48;103695;280;38271;-70
2023/04/06 09:19:08;;;;;;;4.80;3.50;;;;;;;4.99;56.43;100949.52;103671;280;38266;-71
2023/04/06 09:21:43;;;;;;;6.80;4.10;;;;;;;4.95;56.66;100949.36;103605;280;173919;-71
2023/04/06 09:24:20;;;;;;;5.50;3.60;;;;;;;4.93;56.86;100941.41;103684;280;38256;-69
2023/04/06 09:26:55;;;;;;;6.50;3.40;;;;;;;4.89;57.18;100934.86;103701;279;39947;-70
2023/04/06 09:29:29;;;;;;;5.80;3.50;;;;;;;4.87;57.13;100936.45;103664;280;38804;-69
2023/04/06 09:32:11;;;;;;;9.00;5.30;;;;;;;4.84;57.06;100933.17;103709;280;39328;-72
2023/04/06 09:34:48;;;;;;;6.00;4.30;;;;;;;4.80;57.08;100932.67;103206;280;657882;-71
2023/04/06 09:37:23;;;;;;;5.20;4.00;;;;;;;4.71;56.82;100932.20;103672;280;39862;-71
2023/04/06 09:40:08;;;;;;;8.20;4.90;;;;;;;4.54;57.49;100926.40;103663;280;40015;-71
2023/04/06 09:42:46;;;;;;;5.70;3.70;;;;;;;4.36;57.91;100930.79;103672;280;39554;-72
2023/04/06 09:45:21;;;;;;;5.80;3.70;;;;;;;4.21;58.28;100928.09;103599;280;175593;-70
2023/04/06 09:48:01;;;;;;;4.50;3.80;;;;;;;4.12;58.69;100930.70;103678;280;38925;-69
2023/04/06 09:50:37;;;;;;;5.10;3.30;;;;;;;4.08;59.03;100929.33;103692;280;38212;-73
2023/04/06 09:53:12;;;;;;;5.30;3.20;;;;;;;4.07;58.90;100925.19;103658;279;39655;-69
2023/04/06 09:55:47;;;;;;;4.70;3.30;;;;;;;4.04;59.51;100917.95;103712;280;38690;-71
2023/04/06 09:58:25;;;;;;;5.80;3.90;;;;;;;4.02;59.95;100919.84;103508;282;39422;-70
2023/04/06 10:01:03;;;;;;;4.00;3.00;;;;;;;3.97;60.37;100915.72;103730;280;39660;-70
2023/04/06 10:03:42;;;;;;;7.10;3.80;;;;;;;3.96;61.10;100913.14;103652;280;38788;-71
2023/04/06 10:06:22;;;;;;;6.20;4.20;;;;;;;3.95;62.18;100912.61;103696;280;38545;-73
2023/04/06 10:08:59;;;;;;;8.90;4.50;;;;;;;3.90;62.69;100908.48;103688;280;39721;-71
2023/04/06 10:11:33;;;;;;;6.40;4.40;;;;;;;3.90;62.88;100906.77;103724;280;38255;-69
2023/04/06 10:14:09;;;;;;;5.50;4.00;;;;;;;3.91;62.93;100906.59;103539;280;175581;-72
2023/04/06 10:16:46;;;;;;;5.70;3.40;;;;;;;3.89;62.76;100903.99;103574;282;38563;-70
2023/04/06 10:19:24;;;;;;;4.90;3.20;;;;;;;3.92;63.29;100897.78;103706;280;39551;-71
2023/04/06 10:21:59;;;;;;;5.10;3.40;;;;;;;3.97;63.70;100889.98;103669;280;39171;-73
2023/04/06 10:24:33;;;;;;;6.50;4.00;;;;;;;4.06;63.59;100886.34;103658;280;38219;-73
2023/04/06 10:27:11;;;;;;;6.10;3.50;;;;;;;4.12;63.64;100882.52;103493;280;38431;-69
2023/04/06 10:29:49;;;;;;;5.60;3.80;;;;;;;4.21;63.58;100881.81;103691;280;38967;-69
2023/04/06 10:32:30;;;;;;;6.40;3.80;;;;;;;4.23;63.83;100883.17;103621;280;175271;-67
2023/04/06 10:35:15;;;;;;;5.50;3.80;;;;;;;4.30;64.01;100884.02;103661;280;38233;-71
2023/04/06 10:38:02;;;;;;;5.10;3.40;;;;;;;4.36;63.72;100881.05;103657;280;38726;-70
2023/04/06 10:40:42;;;;;;;5.20;3.90;;;;;;;4.31;63.42;100887.13;103713;280;38236;-71
2023/04/06 10:43:23;;;;;;;4.40;3.20;;;;;;;4.18;63.45;100883.71;103657;268;39422;-70
2023/04/06 10:46:02;;;;;;;5.00;3.70;;;;;;;4.09;63.90;100879.60;103714;280;38509;-71
2023/04/06 10:48:43;;;;;;;6.30;4.10;;;;;;;4.00;64.20;100883.26;103688;280;39437;-72
2023/04/06 10:51:21;;;;;;;6.30;4.30;;;;;;;3.92;64.72;100882.77;103666;280;38271;-71
2023/04/06 10:53:56;;;;;;;5.80;3.70;;;;;;;3.83;65.10;100877.44;103678;280;38685;-69
2023/04/06 10:56:31;;;;;;;6.90;4.10;;;;;;;3.74;65.85;100873.31;103676;280;38271;-71
2023/04/06 10:59:05;;;;;;;5.00;3.70;;;;;;;3.65;66.00;100870.90;103670;280;38283;-71
2023/04/06 11:01:39;;;;;;;4.90;3.50;;;;;;;3.62;66.53;100864.36;103655;280;38931;-70
2023/04/06 11:04:14;;;;;;;8.30;4.10;;;;;;;3.59;66.79;100866.09;103701;280;38364;-70
2023/04/06 11:06:50;;;;;;;6.00;3.80;;;;;;;3.59;67.14;100862.98;103667;280;38284;-71
2023/04/06 11:09:32;;;;;;;6.20;4.10;;;;;;;3.61;67.54;100859.36;103660;280;39396;-69
2023/04/06 11:12:07;;;;;;;6.20;4.00;;;;;;;3.58;67.73;100859.89;103699;280;38291;-68
2023/04/06 11:14:41;;;;;;;5.60;4.10;;;;;;;3.54;67.87;100860.58;103694;280;38516;-68
2023/04/06 11:17:16;;;;;;;5.90;4.30;;;;;;;3.52;68.20;100859.02;103669;280;38418;-69
2023/04/06 11:19:51;;;;;;;6.00;4.30;;;;;;;3.53;68.28;100861.95;103542;280;38295;-70
2023/04/06 11:22:26;;;;;;;7.20;4.50;;;;;;;3.52;68.08;100858.86;103655;280;38710;-68
2023/04/06 11:25:13;;;;;;;8.00;4.40;;;;;;;3.51;68.51;100856.62;103691;280;40583;-70
2023/04/06 11:27:48;;;;;;;7.20;4.30;;;;;;;3.50;68.72;100849.37;103698;280;38464;-71
2023/04/06 11:30:23;;;;;;;6.70;5.60;;;;;;;3.54;68.80;100845.73;103716;269;39644;-70
2023/04/06 11:33:03;;;;;;;5.60;4.80;;;;;;;3.58;68.84;100849.69;103653;280;39207;-70
2023/04/06 11:35:38;;;;;;;6.00;5.00;;;;;;;3.57;69.07;100837.29;103749;280;38255;-71
2023/04/06 11:38:13;;;;;;;6.00;5.10;;;;;;;3.59;69.25;100831.58;103500;280;38647;-71
2023/04/06 11:40:48;;;;;;;8.30;5.40;;;;;;;3.59;69.14;100831.93;103687;280;39376;-71
2023/04/06 11:43:29;;;;;;;6.80;5.00;;;;;;;3.61;69.40;100831.06;103509;282;38634;-71
2023/04/06 11:46:08;;;;;;;7.00;5.60;;;;;;;3.61;69.55;100832.79;103733;280;38979;-70
2023/04/06 11:48:52;;;;;;;8.10;6.00;;;;;;;3.62;69.65;100829.86;103641;280;38964;-70
2023/04/06 11:51:30;;;;;;;7.00;5.60;;;;;;;3.62;69.61;100827.27;103473;280;38767;-69
2023/04/06 11:54:04;;;;;;;9.00;6.20;;;;;;;3.59;69.96;100820.72;103744;280;38705;-69
2023/04/06 11:56:40;;;;;;;8.20;5.80;;;;;;;3.59;70.01;100823.48;103723;280;39607;-71
2023/04/06 11:59:14;;;;;;;6.90;5.40;;;;;;;3.63;70.17;100817.77;103727;280;39533;-71
2023/04/06 12:01:51;;;;;;;7.60;5.80;;;;;;;3.64;69.96;100815.18;103524;280;38244;-70
2023/04/06 12:04:26;;;;;;;6.10;5.30;;;;;;;3.69;69.88;100809.30;103612;280;39017;-69
2023/04/06 12:07:00;;;;;;;8.60;6.40;;;;;;;3.74;69.66;100807.73;103675;280;38862;-73
2023/04/06 12:09:36;;;;;;;7.30;5.80;;;;;;;3.77;69.58;100807.55;103659;279;38291;-73